aviador You're here:

LFAT Decoded Metar

LE TOURQUET in FRANCE
Report Time2017-08-23 03:30:00
UTC Time2017-08-23 04:05:25
Flight Rules vfr VFR
Wind120° at 07 kt
W.Decomp.*RWY 14: 6.7 kt HW 2.2 kt LCW
W.Rank120° ranks 7
Current wind is above 120° avg. (6.3)
Visibility9999 m
Phenomena:N/A
Clouds:N/A
Expected CloudBase > 400 ft AGL from Temp-Dew spread
CeilingNone
Temp17°C (ISA +2)
Dew Point16°C (94% RH)
AAT16.5°C
QNH1013 hPa
Density Alt535 ft
Elevation46 ft
Report Wrong Elevation
Raw Report
LFAT 230330Z AUTO 12007KT CAVOK 17/16 Q1013=

Extra information for LFAT:More info

Metar Taf Metar & Taf Last 4 Metars F.Rules Stats Wind Profile Meteogram Temp Stats Airport Information Weather charts Add Link Nearby VenuesMetar ALERT Operation Metar Decoded Social comments

LeTouquet left-side RWY
Le Touquet center RWY
Le Touquet right-side RWY